Saturday, January 20, 2018, 8:20 AM EST
Back to Local

KBVY, Beverly Municipal Airport

Location: Danvers, MA, United States Lat: 42.583
Local Time: 8:20 AM EST (13:20 GMT) Lon: -70.917
Time Zone: US/Eastern Elev: 108 ft

Show me the last for .
Show Coded

Time T Td Feel RH Dir Speed Gust Alt SLP Vis Weather Sky Remarks
2018-01-20 07:53 36 23 27 58 220° 14 - 29.67 29.66 10 SCT140 BKN200 None
2018-01-20 06:53 35 22 27 58 220° 12 - 29.68 29.67 10 BKN140 BKN200 6-hr Min Temp (7am): 30.9°F
6-hr Max Temp (7am): 35.1°F
2018-01-20 05:53 34 21 26 58 220° 10 - 29.70 29.69 10 CLR None
2018-01-20 04:53 32 20 24 60 210° 9 - 29.74 29.73 10 CLR None
2018-01-20 03:53 33 21 25 60 210° 9 - 29.77 29.77 10 CLR None
2018-01-20 01:53 33 20 25 58 220° 9 - 29.81 29.80 10 CLR None
2018-01-20 00:53 31 19 23 60 200° 8 - 29.83 29.82 10 CLR Pressure falling rapidly
6-hr Min Temp (1am): 28.9°F
6-hr Max Temp (1am): 32.0°F
2018-01-19 23:53 29 19 22 66 210° 7 - 29.87 29.86 10 CLR 24-hr Min Temp (12am): 19.9°F
24-hr Max Temp (12am): 33.1°F
2018-01-19 22:53 30 20 23 65 210° 7 - 29.90 29.90 10 CLR None
2018-01-19 21:53 31 21 25 66 210° 6 - 29.91 29.90 10 SCT039 None
2018-01-19 20:53 32 22 26 65 240° 6 - 29.93 29.92 10 OVC039 None
2018-01-19 19:53 32 23 26 68 240° 6 - 29.94 29.93 9 OVC038 None
2018-01-19 18:53 32 22 27 65 220° 5 - 29.91 29.90 10 OVC039 6-hr Min Temp (7pm): 32.0°F
6-hr Max Temp (7pm): 33.1°F
2018-01-19 17:53 32 22 27 65 180° 5 - 29.91 29.90 10 OVC038 None
2018-01-19 16:53 32 22 27 65 290° 5 - 29.94 29.93 10 OVC039 None
2018-01-19 15:53 33 22 28 63 280° 6 - 29.93 29.92 10 OVC033 None
2018-01-19 14:53 33 21 26 60 290° 8 - 29.92 29.91 10 OVC034 None
2018-01-19 13:53 32 21 25 63 270° 8 - 29.90 29.89 10 OVC032 None
2018-01-19 12:53 32 20 26 60 Variable 7 - 29.91 29.90 10 SCT034 6-hr Min Temp (1pm): 21.0°F
6-hr Max Temp (1pm): 33.1°F
2018-01-19 11:53 32 21 27 63 Variable 5 - 29.94 29.93 10 FEW037 None
2018-01-19 10:53 30 19 22 63 250° 8 - 29.96 29.95 10 SCT039 None
2018-01-19 09:53 28 19 20 68 280° 8 - 29.97 29.96 10 FEW055 None
2018-01-19 08:53 25 17 18 71 270° 6 - 29.97 29.96 10 OVC044 None

Support USWX by starting your Amazon purchase here.